Time;durP1;ratioP1;P1;durP2;ratioP2;P2;SDS_P1;SDS_P2;PMS_P1;PMS_P2;Temp;Humidity;BMP_temperature;BMP_pressure;BME280_temperature;BME280_humidity;BME280_pressure;Samples;Min_cycle;Max_cycle;Signal;HPM_P1;HPM_P2
2022/08/16 00:03:52;;;;;;;2.08;1.88;;;;;;;;;;12394852;28;20062;-81
2022/08/16 00:09:53;;;;;;;2.60;1.60;;;;;;;;;;12376546;28;20092;-82
2022/08/16 00:15:55;;;;;;;;;;;;;;;;;;12393517;28;20042;-81
2022/08/16 00:21:57;;;;;;;2.90;2.70;;;;;;;;;;12376359;28;20390;-81
2022/08/16 00:27:59;;;;;;;4.78;2.30;;;;;;;;;;12390910;28;20038;-82
2022/08/16 00:34:01;;;;;;;3.78;2.45;;;;;;;;;;12393501;28;20395;-82
2022/08/16 00:40:03;;;;;;;;;;;;;;;;;;12392160;28;20026;-80
2022/08/16 00:46:14;;;;;;;3.00;2.80;;;;;;;;;;12375523;28;20374;-82
2022/08/16 00:52:16;;;;;;;2.70;2.00;;;;;;;;;;12375516;28;20041;-82
2022/08/16 00:58:18;;;;;;;2.40;2.13;;;;;;;;;;12392027;28;20479;-80
2022/08/16 01:04:21;;;;;;;2.40;1.70;;;;;;;;;;12391333;28;20058;-81
2022/08/16 01:10:25;;;;;;;2.33;1.90;;;;;;;;;;12390933;28;20038;-81
2022/08/16 01:16:28;;;;;;;2.17;1.98;;;;;;;;;;12391207;28;20068;-81
2022/08/16 01:22:47;;;;;;;2.22;2.03;;;;;;;;;;12392966;28;20522;-81
2022/08/16 01:28:49;;;;;;;1.65;1.55;;;;;;;;;;12386385;28;20047;-81
2022/08/16 01:34:51;;;;;;;1.88;1.55;;;;;;;;;;12414919;28;20035;-81
2022/08/16 01:41:01;;;;;;;1.33;1.23;;;;;;;;;;12398428;28;20035;-81
2022/08/16 01:47:03;;;;;;;1.40;1.15;;;;;;;;;;12399253;28;20510;-81
2022/08/16 01:53:06;;;;;;;1.27;1.17;;;;;;;;;;12397911;28;20411;-81
2022/08/16 01:59:17;;;;;;;1.20;1.10;;;;;;;;;;12411583;28;20038;-80
2022/08/16 02:05:20;;;;;;;1.52;1.10;;;;;;;;;;12381622;28;20054;-81
2022/08/16 02:11:22;;;;;;;;;;;;;;;;;;12397499;28;20038;-82
2022/08/16 02:17:23;;;;;;;1.50;1.40;;;;;;;;;;12397042;28;19910;-81
2022/08/16 02:23:25;;;;;;;;;;;;;;;;;;12398237;28;20041;-82
2022/08/16 02:29:27;;;;;;;1.43;1.33;;;;;;;;;;12397852;28;19941;-82
2022/08/16 02:35:29;;;;;;;1.52;1.23;;;;;;;;;;12397791;28;20046;-82
2022/08/16 02:41:30;;;;;;;1.13;1.05;;;;;;;;;;12396785;28;20050;-81
2022/08/16 02:47:32;;;;;;;;;;;;;;;;;;12395451;28;20035;-82
2022/08/16 02:53:35;;;;;;;1.15;1.05;;;;;;;;;;12395732;28;19909;-82
2022/08/16 02:59:38;;;;;;;2.20;2.00;;;;;;;;;;12395863;28;20045;-82
2022/08/16 03:05:40;;;;;;;2.10;1.80;;;;;;;;;;12395715;28;20531;-81
2022/08/16 03:11:43;;;;;;;1.50;1.40;;;;;;;;;;12395636;28;20038;-81
2022/08/16 03:17:45;;;;;;;1.50;1.20;;;;;;;;;;12396280;28;20039;-81
2022/08/16 03:23:47;;;;;;;1.70;1.60;;;;;;;;;;12395942;28;20030;-81
2022/08/16 03:29:49;;;;;;;1.30;1.20;;;;;;;;;;12396368;28;20042;-81
2022/08/16 03:35:52;;;;;;;4.45;1.58;;;;;;;;;;12395408;28;20046;-81
2022/08/16 03:41:59;;;;;;;1.67;1.58;;;;;;;;;;12397472;28;20038;-81
2022/08/16 03:48:01;;;;;;;;;;;;;;;;;;12405999;28;20620;-81
2022/08/16 03:54:03;;;;;;;1.20;1.10;;;;;;;;;;12393823;28;19910;-81
2022/08/16 04:00:13;;;;;;;1.50;1.40;;;;;;;;;;12394233;28;20073;-81
2022/08/16 04:06:15;;;;;;;2.17;1.60;;;;;;;;;;12395234;28;20509;-80
2022/08/16 04:12:17;;;;;;;1.13;1.13;;;;;;;;;;12393582;28;20479;-83
2022/08/16 04:18:19;;;;;;;;;;;;;;;;;;12394003;28;20053;-81
2022/08/16 04:24:21;;;;;;;1.63;1.53;;;;;;;;;;12393772;28;20256;-81
2022/08/16 04:30:24;;;;;;;1.70;1.60;;;;;;;;;;12392839;28;20396;-81
2022/08/16 04:36:26;;;;;;;;;;;;;;;;;;12394345;28;20049;-81
2022/08/16 04:42:28;;;;;;;1.43;1.10;;;;;;;;;;12379752;28;19914;-80
2022/08/16 04:48:30;;;;;;;1.58;1.38;;;;;;;;;;12408080;28;20411;-82
2022/08/16 04:54:34;;;;;;;2.13;1.63;;;;;;;;;;12402593;28;20042;-80
2022/08/16 05:00:36;;;;;;;;;;;;;;;;;;12417840;28;20030;-81
2022/08/16 05:06:58;;;;;;;1.47;1.37;;;;;;;;;;12394402;28;19929;-81
2022/08/16 05:13:17;;;;;;;2.03;1.80;;;;;;;;;;12376966;28;20509;-81
2022/08/16 05:19:20;;;;;;;2.58;1.77;;;;;;;;;;12392850;28;20034;-81
2022/08/16 05:25:48;;;;;;;1.95;1.85;;;;;;;;;;12391244;28;20045;-81
2022/08/16 05:31:51;;;;;;;1.92;1.60;;;;;;;;;;12375558;28;20042;-81
2022/08/16 05:37:53;;;;;;;1.25;1.25;;;;;;;;;;12390749;28;20487;-82
2022/08/16 05:43:55;;;;;;;1.55;1.45;;;;;;;;;;12390841;28;20399;-81
2022/08/16 05:50:04;;;;;;;1.58;1.48;;;;;;;;;;12390541;28;20043;-81
2022/08/16 05:56:07;;;;;;;1.10;1.10;;;;;;;;;;12393630;28;20516;-82
2022/08/16 06:02:12;;;;;;;0.90;0.77;;;;;;;;;;12399401;28;20061;-81
2022/08/16 06:08:16;;;;;;;0.70;0.70;;;;;;;;;;12388656;28;20050;-80
2022/08/16 06:14:21;;;;;;;1.20;0.80;;;;;;;;;;12374345;28;20042;-81
2022/08/16 06:20:25;;;;;;;0.68;0.68;;;;;;;;;;12389921;28;20487;-82
2022/08/16 06:26:28;;;;;;;0.80;0.80;;;;;;;;;;12396414;28;20407;-81
2022/08/16 06:32:30;;;;;;;0.55;0.55;;;;;;;;;;12397529;28;20475;-81
2022/08/16 06:38:32;;;;;;;;;;;;;;;;;;12401690;28;20092;-80
2022/08/16 06:44:34;;;;;;;0.50;0.50;;;;;;;;;;12396754;28;20405;-81
2022/08/16 06:50:39;;;;;;;0.30;0.30;;;;;;;;;;12397325;28;20046;-82
2022/08/16 06:56:43;;;;;;;0.70;0.50;;;;;;;;;;12397340;28;20042;-82
2022/08/16 07:02:48;;;;;;;0.70;0.40;;;;;;;;;;12396335;28;20369;-81
2022/08/16 07:08:51;;;;;;;0.70;0.55;;;;;;;;;;12395069;28;20042;-81
2022/08/16 07:14:53;;;;;;;0.43;0.43;;;;;;;;;;12396759;28;20037;-82
2022/08/16 07:20:57;;;;;;;0.60;0.60;;;;;;;;;;12399995;28;20034;-81
2022/08/16 07:27:00;;;;;;;0.52;0.52;;;;;;;;;;12401573;28;20042;-83
2022/08/16 07:33:04;;;;;;;0.60;0.60;;;;;;;;;;12409194;28;20034;-83
2022/08/16 07:39:07;;;;;;;0.70;0.70;;;;;;;;;;12404586;28;20483;-83
2022/08/16 07:45:12;;;;;;;0.77;0.77;;;;;;;;;;12381453;28;20042;-83
2022/08/16 07:51:20;;;;;;;0.65;0.65;;;;;;;;;;12395386;28;20046;-83
2022/08/16 07:57:22;;;;;;;0.90;0.90;;;;;;;;;;12396141;28;20039;-83
2022/08/16 08:03:24;;;;;;;1.30;1.20;;;;;;;;;;12394296;28;20487;-83
2022/08/16 08:09:27;;;;;;;1.20;1.10;;;;;;;;;;12394582;28;20043;-83
2022/08/16 08:15:29;;;;;;;1.17;1.15;;;;;;;;;;12398371;28;20038;-83
2022/08/16 08:21:33;;;;;;;1.00;1.00;;;;;;;;;;12404764;28;20038;-83
2022/08/16 08:27:35;;;;;;;1.20;1.10;;;;;;;;;;12426524;28;20049;-83
2022/08/16 08:33:38;;;;;;;1.45;1.35;;;;;;;;;;12386582;28;20061;-83
2022/08/16 08:39:40;;;;;;;1.40;1.30;;;;;;;;;;12392784;28;20034;-83
2022/08/16 08:45:43;;;;;;;1.40;1.30;;;;;;;;;;12391522;28;20387;-83
2022/08/16 08:51:45;;;;;;;1.88;1.77;;;;;;;;;;12390874;28;20038;-83
2022/08/16 08:57:51;;;;;;;1.48;1.38;;;;;;;;;;12378031;28;20045;-84
2022/08/16 09:04:19;;;;;;;1.63;1.53;;;;;;;;;;12398902;28;20058;-83
2022/08/16 09:10:23;;;;;;;1.48;1.38;;;;;;;;;;12392182;28;20038;-83
2022/08/16 09:16:26;;;;;;;1.30;1.20;;;;;;;;;;12390444;28;20046;-84
2022/08/16 09:22:28;;;;;;;0.90;0.90;;;;;;;;;;12390619;28;20035;-83
2022/08/16 09:28:31;;;;;;;1.40;1.30;;;;;;;;;;12388840;28;20030;-83
2022/08/16 09:34:45;;;;;;;1.52;1.42;;;;;;;;;;12389516;28;20059;-83
2022/08/16 09:40:47;;;;;;;1.50;1.40;;;;;;;;;;12390168;28;20034;-84
2022/08/16 09:46:49;;;;;;;2.00;1.80;;;;;;;;;;12392363;28;20441;-83
2022/08/16 09:52:51;;;;;;;1.58;1.48;;;;;;;;;;12390397;28;20488;-83
2022/08/16 09:58:53;;;;;;;1.38;1.27;;;;;;;;;;12397146;28;20046;-83
2022/08/16 10:04:56;;;;;;;3.50;1.63;;;;;;;;;;12400963;28;20518;-82
2022/08/16 10:17:20;;;;;;;1.40;1.30;;;;;;;;;;12399548;28;20383;-82
2022/08/16 10:23:22;;;;;;;1.40;1.30;;;;;;;;;;12440697;28;20036;-82
2022/08/16 10:29:23;;;;;;;1.35;1.25;;;;;;;;;;12400225;28;20049;-82
2022/08/16 10:35:25;;;;;;;1.20;1.15;;;;;;;;;;12401793;28;20379;-82
2022/08/16 10:41:27;;;;;;;1.17;1.08;;;;;;;;;;12397967;28;20038;-82
2022/08/16 10:47:29;;;;;;;1.10;1.10;;;;;;;;;;12395047;28;20050;-82
2022/08/16 10:53:31;;;;;;;1.20;1.10;;;;;;;;;;12394318;28;20037;-82
2022/08/16 10:59:34;;;;;;;0.80;0.80;;;;;;;;;;12396063;28;20049;-83
2022/08/16 11:05:37;;;;;;;0.90;0.90;;;;;;;;;;12380465;28;20525;-83
2022/08/16 11:11:39;;;;;;;0.98;0.98;;;;;;;;;;12380639;28;20411;-83
2022/08/16 11:17:41;;;;;;;0.80;0.77;;;;;;;;;;12381182;28;20427;-83
2022/08/16 11:23:42;;;;;;;0.93;0.90;;;;;;;;;;12396994;28;20045;-83
2022/08/16 11:29:44;;;;;;;0.80;0.80;;;;;;;;;;12397529;28;20047;-82
2022/08/16 11:35:46;;;;;;;0.70;0.70;;;;;;;;;;12399124;28;20038;-83
2022/08/16 11:41:48;;;;;;;1.27;1.17;;;;;;;;;;12401059;28;20042;-82
2022/08/16 11:47:50;;;;;;;1.27;1.00;;;;;;;;;;12409074;28;20031;-82
2022/08/16 11:53:52;;;;;;;1.27;1.17;;;;;;;;;;12451165;28;20122;-83
2022/08/16 11:59:53;;;;;;;0.90;0.90;;;;;;;;;;12403208;28;20034;-82
2022/08/16 12:05:55;;;;;;;0.90;0.88;;;;;;;;;;12400759;28;20058;-82
2022/08/16 12:11:57;;;;;;;1.77;0.90;;;;;;;;;;12397404;28;20053;-82
2022/08/16 12:17:59;;;;;;;0.98;0.70;;;;;;;;;;12396302;28;20035;-83
2022/08/16 12:24:01;;;;;;;0.70;0.70;;;;;;;;;;12403768;28;20038;-82
2022/08/16 12:30:05;;;;;;;1.30;1.20;;;;;;;;;;12399836;28;20039;-82
2022/08/16 12:36:07;;;;;;;0.75;0.75;;;;;;;;;;12401566;28;20037;-82
2022/08/16 12:42:08;;;;;;;1.08;0.98;;;;;;;;;;12384900;28;20038;-82
2022/08/16 12:54:32;;;;;;;;;;;;;;;;;;12398952;28;20514;-83
2022/08/16 13:00:34;;;;;;;0.50;0.50;;;;;;;;;;12398888;28;19909;-83
2022/08/16 13:06:36;;;;;;;0.57;0.57;;;;;;;;;;12396956;28;20074;-83
2022/08/16 13:12:39;;;;;;;1.15;0.80;;;;;;;;;;12420030;28;20262;-83
2022/08/16 13:18:41;;;;;;;0.70;0.70;;;;;;;;;;12397771;28;20252;-83
2022/08/16 13:24:43;;;;;;;1.63;0.90;;;;;;;;;;12395996;28;20038;-83
2022/08/16 13:30:47;;;;;;;0.80;0.80;;;;;;;;;;12392760;28;20050;-83
2022/08/16 13:36:49;;;;;;;0.70;0.70;;;;;;;;;;12401446;28;20045;-83
2022/08/16 13:42:57;;;;;;;0.88;0.88;;;;;;;;;;12401273;28;20041;-83
2022/08/16 13:48:59;;;;;;;0.73;0.73;;;;;;;;;;12401916;28;20046;-83
2022/08/16 13:55:01;;;;;;;0.63;0.63;;;;;;;;;;12402537;28;20026;-82
2022/08/16 14:01:03;;;;;;;0.70;0.52;;;;;;;;;;12395142;28;20419;-83
2022/08/16 14:07:06;;;;;;;0.85;0.77;;;;;;;;;;12394637;28;20061;-83
2022/08/16 14:13:08;;;;;;;0.60;0.60;;;;;;;;;;12395294;28;20030;-83
2022/08/16 14:19:12;;;;;;;0.90;0.90;;;;;;;;;;12394844;28;20033;-83
2022/08/16 14:25:16;;;;;;;2.58;1.05;;;;;;;;;;12394387;28;20038;-83
2022/08/16 14:31:18;;;;;;;1.80;1.08;;;;;;;;;;12394414;28;20042;-83
2022/08/16 14:37:20;;;;;;;1.10;1.00;;;;;;;;;;12401540;28;20031;-83
2022/08/16 14:43:23;;;;;;;0.90;0.88;;;;;;;;;;12395314;28;20158;-83
2022/08/16 14:49:25;;;;;;;1.15;1.00;;;;;;;;;;12396504;28;20046;-83
2022/08/16 14:55:28;;;;;;;0.80;0.80;;;;;;;;;;12407350;28;20507;-83
2022/08/16 15:01:30;;;;;;;1.38;1.08;;;;;;;;;;12405434;28;20547;-84
2022/08/16 15:07:32;;;;;;;1.45;1.05;;;;;;;;;;12421070;28;20050;-84
2022/08/16 15:13:34;;;;;;;1.10;1.00;;;;;;;;;;12407538;28;20038;-84
2022/08/16 15:19:36;;;;;;;0.93;0.68;;;;;;;;;;12392589;28;20030;-83
2022/08/16 15:25:39;;;;;;;0.80;0.73;;;;;;;;;;12395619;28;20088;-83
2022/08/16 15:31:43;;;;;;;0.95;0.90;;;;;;;;;;12394839;28;20049;-83
2022/08/16 15:37:45;;;;;;;1.30;1.10;;;;;;;;;;12392214;28;20042;-83
2022/08/16 15:43:47;;;;;;;0.75;0.70;;;;;;;;;;12392066;28;20491;-83
2022/08/16 15:49:49;;;;;;;0.90;0.90;;;;;;;;;;12391437;28;20050;-83
2022/08/16 15:55:51;;;;;;;0.77;0.75;;;;;;;;;;12390618;28;20053;-83
2022/08/16 16:01:53;;;;;;;0.73;0.73;;;;;;;;;;12405369;28;20045;-82
2022/08/16 16:07:55;;;;;;;0.70;0.65;;;;;;;;;;12395835;28;20046;-83
2022/08/16 16:13:57;;;;;;;0.50;0.50;;;;;;;;;;12389977;28;20030;-83
2022/08/16 16:19:59;;;;;;;1.00;0.90;;;;;;;;;;12390273;28;20403;-84
2022/08/16 16:26:01;;;;;;;1.02;0.93;;;;;;;;;;12390057;28;20052;-83
2022/08/16 16:32:05;;;;;;;0.43;0.43;;;;;;;;;;12391392;28;20042;-84
2022/08/16 16:38:07;;;;;;;1.33;0.60;;;;;;;;;;12373346;28;20034;-82
2022/08/16 16:44:09;;;;;;;1.02;0.50;;;;;;;;;;12372674;28;20037;-84
2022/08/16 16:50:12;;;;;;;0.75;0.75;;;;;;;;;;12390924;28;20058;-84
2022/08/16 16:56:13;;;;;;;0.60;0.60;;;;;;;;;;12392728;28;20038;-84
2022/08/16 17:02:15;;;;;;;1.05;0.70;;;;;;;;;;12373440;28;20046;-84
2022/08/16 17:08:17;;;;;;;0.60;0.60;;;;;;;;;;12399099;28;20042;-84
2022/08/16 17:14:19;;;;;;;0.60;0.60;;;;;;;;;;12388290;28;20392;-84
2022/08/16 17:20:22;;;;;;;0.80;0.70;;;;;;;;;;12387878;28;20435;-84
2022/08/16 17:26:24;;;;;;;1.30;0.60;;;;;;;;;;12387181;28;20041;-84
2022/08/16 17:32:26;;;;;;;0.68;0.60;;;;;;;;;;12388103;28;20485;-84
2022/08/16 17:38:28;;;;;;;0.95;0.70;;;;;;;;;;12392573;28;20361;-84
2022/08/16 17:44:31;;;;;;;0.80;0.50;;;;;;;;;;12399653;28;20045;-83
2022/08/16 17:50:33;;;;;;;0.73;0.73;;;;;;;;;;12396761;28;20054;-83
2022/08/16 17:56:35;;;;;;;0.65;0.50;;;;;;;;;;12382373;28;20038;-84
2022/08/16 18:02:36;;;;;;;0.60;0.60;;;;;;;;;;12381066;28;20058;-83
2022/08/16 18:08:40;;;;;;;0.90;0.50;;;;;;;;;;12398444;28;20403;-83
2022/08/16 18:14:42;;;;;;;0.60;0.60;;;;;;;;;;12413009;28;20136;-83
2022/08/16 18:27:05;;;;;;;0.93;0.70;;;;;;;;;;12406550;28;20065;-83
2022/08/16 18:33:07;;;;;;;2.10;0.65;;;;;;;;;;12404290;28;20296;-83
2022/08/16 18:39:11;;;;;;;0.60;0.60;;;;;;;;;;12406610;28;20030;-83
2022/08/16 18:45:13;;;;;;;1.67;0.77;;;;;;;;;;12403246;28;20046;-83
2022/08/16 18:51:15;;;;;;;1.42;0.50;;;;;;;;;;12406612;28;20049;-82
2022/08/16 18:57:17;;;;;;;0.90;0.60;;;;;;;;;;12422431;28;20042;-82
2022/08/16 19:03:20;;;;;;;1.00;0.68;;;;;;;;;;12405392;28;20063;-82
2022/08/16 19:09:23;;;;;;;0.47;0.47;;;;;;;;;;12410749;28;20549;-83
2022/08/16 19:15:27;;;;;;;1.67;0.63;;;;;;;;;;12421544;28;20235;-83
2022/08/16 19:21:29;;;;;;;1.90;0.73;;;;;;;;;;12406314;28;20046;-82
2022/08/16 19:27:31;;;;;;;0.85;0.50;;;;;;;;;;12406807;28;20038;-82
2022/08/16 19:33:32;;;;;;;0.57;0.57;;;;;;;;;;12404929;28;20058;-82
2022/08/16 19:39:36;;;;;;;0.80;0.52;;;;;;;;;;12408684;28;20414;-82
2022/08/16 19:45:38;;;;;;;0.70;0.70;;;;;;;;;;12407634;28;20026;-81
2022/08/16 19:51:40;;;;;;;0.75;0.63;;;;;;;;;;12405592;28;20039;-82
2022/08/16 19:57:47;;;;;;;0.73;0.70;;;;;;;;;;12410375;28;20033;-82
2022/08/16 20:03:49;;;;;;;1.20;1.13;;;;;;;;;;12410585;28;20058;-82
2022/08/16 20:09:52;;;;;;;1.20;0.70;;;;;;;;;;12410446;28;20038;-82
2022/08/16 20:15:55;;;;;;;0.60;0.60;;;;;;;;;;12411480;28;20049;-81
2022/08/16 20:21:58;;;;;;;1.10;1.08;;;;;;;;;;12392738;28;20030;-82
2022/08/16 20:28:00;;;;;;;0.85;0.73;;;;;;;;;;12407268;28;20042;-83
2022/08/16 20:34:03;;;;;;;1.05;0.95;;;;;;;;;;12410282;28;20043;-82
2022/08/16 20:40:10;;;;;;;1.88;1.08;;;;;;;;;;12407089;28;20034;-82
2022/08/16 20:46:12;;;;;;;1.08;0.98;;;;;;;;;;12394846;28;20031;-81
2022/08/16 20:52:15;;;;;;;0.70;0.70;;;;;;;;;;12396513;28;20034;-82
2022/08/16 20:58:17;;;;;;;0.57;0.57;;;;;;;;;;12400716;28;20030;-82
2022/08/16 21:04:20;;;;;;;1.02;0.77;;;;;;;;;;12400727;28;20058;-82
2022/08/16 21:10:23;;;;;;;1.75;1.50;;;;;;;;;;12400604;28;20050;-83
2022/08/16 21:16:25;;;;;;;1.52;1.35;;;;;;;;;;12401820;28;20041;-83
2022/08/16 21:22:29;;;;;;;1.73;1.63;;;;;;;;;;12404192;28;20045;-82
2022/08/16 21:28:31;;;;;;;1.35;1.25;;;;;;;;;;12413253;28;20043;-82
2022/08/16 21:34:33;;;;;;;1.10;1.00;;;;;;;;;;12414131;28;20414;-83
2022/08/16 21:40:37;;;;;;;1.55;1.45;;;;;;;;;;12397009;28;20034;-82
2022/08/16 21:46:39;;;;;;;2.28;1.90;;;;;;;;;;12421333;28;20034;-81
2022/08/16 21:52:41;;;;;;;1.77;1.67;;;;;;;;;;12402718;28;20492;-81
2022/08/16 21:58:43;;;;;;;1.20;1.10;;;;;;;;;;12405548;28;20038;-81
2022/08/16 22:04:45;;;;;;;1.80;1.70;;;;;;;;;;12408649;28;20069;-82
2022/08/16 22:10:47;;;;;;;1.77;1.35;;;;;;;;;;12400715;28;20065;-82
2022/08/16 22:16:49;;;;;;;1.55;1.45;;;;;;;;;;12399845;28;20038;-81
2022/08/16 22:22:51;;;;;;;1.23;1.13;;;;;;;;;;12398975;28;20495;-81
2022/08/16 22:28:52;;;;;;;1.55;1.45;;;;;;;;;;12397593;28;20042;-82
2022/08/16 22:34:55;;;;;;;;;;;;;;;;;;12400033;28;20038;-82
2022/08/16 22:40:57;;;;;;;1.45;1.20;;;;;;;;;;12397271;28;19917;-81
2022/08/16 22:47:00;;;;;;;1.70;1.35;;;;;;;;;;12397587;28;20030;-82
2022/08/16 22:53:02;;;;;;;1.80;1.60;;;;;;;;;;12399893;28;20049;-82
2022/08/16 22:59:04;;;;;;;1.80;1.40;;;;;;;;;;12405361;28;20030;-82
2022/08/16 23:05:07;;;;;;;1.50;1.42;;;;;;;;;;12404147;28;20054;-81
2022/08/16 23:11:11;;;;;;;1.80;1.70;;;;;;;;;;12402587;28;20049;-81
2022/08/16 23:17:14;;;;;;;1.92;1.10;;;;;;;;;;12400903;28;20041;-81
2022/08/16 23:23:16;;;;;;;2.03;1.88;;;;;;;;;;12396100;28;20037;-81
2022/08/16 23:29:20;;;;;;;1.50;1.40;;;;;;;;;;12395418;28;20042;-81
2022/08/16 23:35:23;;;;;;;1.83;1.70;;;;;;;;;;12403483;28;20038;-82
2022/08/16 23:41:25;;;;;;;1.60;1.50;;;;;;;;;;12404375;28;20042;-82
2022/08/16 23:47:26;;;;;;;;;;;;;;;;;;12394945;28;20041;-82
2022/08/16 23:53:31;;;;;;;1.50;1.40;;;;;;;;;;12377081;28;19910;-82
2022/08/16 23:59:34;;;;;;;1.60;1.38;;;;;;;;;;12394289;28;20042;-82
